Terminal Aerodrome Forecast
Issued by NWS

Home | Current Version | Previous Version | Text Only | Print | Product List | Glossary On
Versions: 1 2 3 4 5 6 7 8 9 10 11 12
000
FTUS45 KABQ 221100
TAFFMN
TAF
KFMN 221139Z 2212/2312 09006KT P6SM FEW200
     FM221800 15006KT P6SM SCT200
     FM222100 27009KT P6SM BKN200
     FM230200 01005KT P6SM SCT080 BKN120
     FM230800 28011G18KT P6SM VCSH SCT050 BKN100=

USA.gov is the U.S. government's official web portal to all federal, state and local government web resources and services.